sensor_id;sensor_type;location;lat;lon;timestamp;P1;durP1;ratioP1;P2;durP2;ratioP2
27505;SDS011;14939;43.596;1.320;2022-11-15T00:00:04;27.55;;;21.95;;
27505;SDS011;14939;43.596;1.320;2022-11-15T00:02:30;29.65;;;23.23;;
27505;SDS011;14939;43.596;1.320;2022-11-15T00:04:56;29.77;;;22.50;;
27505;SDS011;14939;43.596;1.320;2022-11-15T00:07:22;27.60;;;21.83;;
27505;SDS011;14939;43.596;1.320;2022-11-15T00:09:47;29.77;;;22.98;;
27505;SDS011;14939;43.596;1.320;2022-11-15T00:12:13;25.23;;;21.33;;
27505;SDS011;14939;43.596;1.320;2022-11-15T00:14:39;23.02;;;18.98;;
27505;SDS011;14939;43.596;1.320;2022-11-15T00:17:04;24.52;;;18.58;;
27505;SDS011;14939;43.596;1.320;2022-11-15T00:19:30;24.42;;;17.95;;
27505;SDS011;14939;43.596;1.320;2022-11-15T00:21:56;23.10;;;17.00;;
27505;SDS011;14939;43.596;1.320;2022-11-15T00:24:21;18.05;;;15.20;;
27505;SDS011;14939;43.596;1.320;2022-11-15T00:26:47;19.67;;;14.45;;
27505;SDS011;14939;43.596;1.320;2022-11-15T00:29:13;19.75;;;14.40;;
27505;SDS011;14939;43.596;1.320;2022-11-15T00:31:38;18.75;;;13.95;;
27505;SDS011;14939;43.596;1.320;2022-11-15T00:34:04;19.83;;;14.10;;
27505;SDS011;14939;43.596;1.320;2022-11-15T00:36:32;19.25;;;13.70;;
27505;SDS011;14939;43.596;1.320;2022-11-15T00:38:59;19.42;;;13.65;;
27505;SDS011;14939;43.596;1.320;2022-11-15T00:41:24;16.67;;;13.55;;
27505;SDS011;14939;43.596;1.320;2022-11-15T00:43:50;18.52;;;13.18;;
27505;SDS011;14939;43.596;1.320;2022-11-15T00:46:16;16.05;;;12.85;;
27505;SDS011;14939;43.596;1.320;2022-11-15T00:48:41;17.45;;;12.02;;
27505;SDS011;14939;43.596;1.320;2022-11-15T00:51:07;13.60;;;10.55;;
27505;SDS011;14939;43.596;1.320;2022-11-15T00:53:33;14.45;;;10.82;;
27505;SDS011;14939;43.596;1.320;2022-11-15T00:55:58;14.05;;;10.60;;
27505;SDS011;14939;43.596;1.320;2022-11-15T00:58:24;13.48;;;10.68;;
27505;SDS011;14939;43.596;1.320;2022-11-15T01:00:50;13.68;;;10.85;;
27505;SDS011;14939;43.596;1.320;2022-11-15T01:03:15;14.20;;;10.73;;
27505;SDS011;14939;43.596;1.320;2022-11-15T01:05:41;14.77;;;11.55;;
27505;SDS011;14939;43.596;1.320;2022-11-15T01:08:11;13.63;;;10.40;;
27505;SDS011;14939;43.596;1.320;2022-11-15T01:10:38;12.45;;;9.40;;
27505;SDS011;14939;43.596;1.320;2022-11-15T01:13:03;12.18;;;8.68;;
27505;SDS011;14939;43.596;1.320;2022-11-15T01:15:29;12.00;;;8.45;;
27505;SDS011;14939;43.596;1.320;2022-11-15T01:17:55;12.75;;;8.55;;
27505;SDS011;14939;43.596;1.320;2022-11-15T01:20:20;10.13;;;7.97;;
27505;SDS011;14939;43.596;1.320;2022-11-15T01:22:46;10.60;;;8.02;;
27505;SDS011;14939;43.596;1.320;2022-11-15T01:25:11;11.02;;;8.30;;
27505;SDS011;14939;43.596;1.320;2022-11-15T01:27:37;13.40;;;8.57;;
27505;SDS011;14939;43.596;1.320;2022-11-15T01:30:03;13.43;;;8.75;;
27505;SDS011;14939;43.596;1.320;2022-11-15T01:32:29;14.18;;;9.10;;
27505;SDS011;14939;43.596;1.320;2022-11-15T01:34:55;12.93;;;8.60;;
27505;SDS011;14939;43.596;1.320;2022-11-15T01:37:20;14.48;;;9.20;;
27505;SDS011;14939;43.596;1.320;2022-11-15T01:39:46;12.70;;;9.00;;
27505;SDS011;14939;43.596;1.320;2022-11-15T01:42:12;18.27;;;10.85;;
27505;SDS011;14939;43.596;1.320;2022-11-15T01:44:48;15.88;;;10.25;;
27505;SDS011;14939;43.596;1.320;2022-11-15T01:47:16;14.25;;;10.40;;
27505;SDS011;14939;43.596;1.320;2022-11-15T01:50:00;15.43;;;11.02;;
27505;SDS011;14939;43.596;1.320;2022-11-15T01:52:30;17.35;;;11.63;;
27505;SDS011;14939;43.596;1.320;2022-11-15T01:57:30;17.85;;;11.00;;
27505;SDS011;14939;43.596;1.320;2022-11-15T01:59:55;18.35;;;11.57;;
27505;SDS011;14939;43.596;1.320;2022-11-15T02:02:23;19.98;;;11.27;;
27505;SDS011;14939;43.596;1.320;2022-11-15T02:04:49;19.77;;;11.65;;
27505;SDS011;14939;43.596;1.320;2022-11-15T02:07:15;19.90;;;11.75;;
27505;SDS011;14939;43.596;1.320;2022-11-15T02:09:44;18.92;;;11.15;;
27505;SDS011;14939;43.596;1.320;2022-11-15T02:12:10;18.45;;;12.23;;
27505;SDS011;14939;43.596;1.320;2022-11-15T02:14:40;18.20;;;11.15;;
27505;SDS011;14939;43.596;1.320;2022-11-15T02:36:45;16.05;;;10.95;;
27505;SDS011;14939;43.596;1.320;2022-11-15T02:39:20;16.75;;;11.20;;
27505;SDS011;14939;43.596;1.320;2022-11-15T02:42:17;15.38;;;10.13;;
27505;SDS011;14939;43.596;1.320;2022-11-15T02:45:08;16.67;;;10.90;;
27505;SDS011;14939;43.596;1.320;2022-11-15T02:47:46;17.30;;;11.48;;
27505;SDS011;14939;43.596;1.320;2022-11-15T02:50:18;18.08;;;11.38;;
27505;SDS011;14939;43.596;1.320;2022-11-15T02:52:50;21.63;;;11.35;;
27505;SDS011;14939;43.596;1.320;2022-11-15T02:55:36;17.40;;;11.63;;
27505;SDS011;14939;43.596;1.320;2022-11-15T03:03:57;17.10;;;10.90;;
27505;SDS011;14939;43.596;1.320;2022-11-15T03:09:04;17.88;;;11.75;;
27505;SDS011;14939;43.596;1.320;2022-11-15T03:11:37;19.20;;;11.75;;
27505;SDS011;14939;43.596;1.320;2022-11-15T03:14:24;21.30;;;12.13;;
27505;SDS011;14939;43.596;1.320;2022-11-15T03:19:30;17.88;;;11.63;;
27505;SDS011;14939;43.596;1.320;2022-11-15T03:22:19;19.70;;;12.68;;
27505;SDS011;14939;43.596;1.320;2022-11-15T03:24:52;19.63;;;13.30;;
27505;SDS011;14939;43.596;1.320;2022-11-15T03:29:50;18.52;;;12.27;;
27505;SDS011;14939;43.596;1.320;2022-11-15T03:32:23;21.23;;;12.95;;
27505;SDS011;14939;43.596;1.320;2022-11-15T03:34:55;21.45;;;13.15;;
27505;SDS011;14939;43.596;1.320;2022-11-15T03:37:24;20.27;;;12.85;;
27505;SDS011;14939;43.596;1.320;2022-11-15T03:39:58;18.50;;;13.27;;
27505;SDS011;14939;43.596;1.320;2022-11-15T03:42:36;21.38;;;13.32;;
27505;SDS011;14939;43.596;1.320;2022-11-15T03:47:57;24.85;;;12.73;;
27505;SDS011;14939;43.596;1.320;2022-11-15T03:50:35;19.30;;;12.43;;
27505;SDS011;14939;43.596;1.320;2022-11-15T03:53:01;18.90;;;12.93;;
27505;SDS011;14939;43.596;1.320;2022-11-15T03:55:27;22.92;;;12.73;;
27505;SDS011;14939;43.596;1.320;2022-11-15T03:57:53;20.90;;;12.77;;
27505;SDS011;14939;43.596;1.320;2022-11-15T04:00:22;18.77;;;11.18;;
27505;SDS011;14939;43.596;1.320;2022-11-15T04:02:48;17.08;;;11.68;;
27505;SDS011;14939;43.596;1.320;2022-11-15T04:05:14;18.75;;;12.27;;
27505;SDS011;14939;43.596;1.320;2022-11-15T04:07:39;18.40;;;12.30;;
27505;SDS011;14939;43.596;1.320;2022-11-15T04:10:05;20.10;;;11.30;;
27505;SDS011;14939;43.596;1.320;2022-11-15T04:12:35;19.90;;;11.20;;
27505;SDS011;14939;43.596;1.320;2022-11-15T04:15:07;20.55;;;10.88;;
27505;SDS011;14939;43.596;1.320;2022-11-15T04:20:00;15.20;;;9.90;;
27505;SDS011;14939;43.596;1.320;2022-11-15T04:22:46;13.55;;;9.77;;
27505;SDS011;14939;43.596;1.320;2022-11-15T04:25:30;13.70;;;9.77;;
27505;SDS011;14939;43.596;1.320;2022-11-15T04:27:56;17.98;;;10.45;;
27505;SDS011;14939;43.596;1.320;2022-11-15T04:30:21;17.92;;;10.38;;
27505;SDS011;14939;43.596;1.320;2022-11-15T04:32:47;15.57;;;10.15;;
27505;SDS011;14939;43.596;1.320;2022-11-15T04:35:13;16.90;;;10.15;;
27505;SDS011;14939;43.596;1.320;2022-11-15T04:37:39;18.23;;;10.40;;
27505;SDS011;14939;43.596;1.320;2022-11-15T04:40:04;17.50;;;10.43;;
27505;SDS011;14939;43.596;1.320;2022-11-15T04:42:30;18.50;;;10.82;;
27505;SDS011;14939;43.596;1.320;2022-11-15T04:44:56;17.58;;;10.23;;
27505;SDS011;14939;43.596;1.320;2022-11-15T04:47:22;19.00;;;10.77;;
27505;SDS011;14939;43.596;1.320;2022-11-15T04:49:47;20.58;;;11.02;;
27505;SDS011;14939;43.596;1.320;2022-11-15T04:52:13;19.38;;;11.35;;
27505;SDS011;14939;43.596;1.320;2022-11-15T04:54:38;17.50;;;10.98;;
27505;SDS011;14939;43.596;1.320;2022-11-15T04:57:07;19.88;;;11.50;;
27505;SDS011;14939;43.596;1.320;2022-11-15T04:59:32;18.42;;;11.43;;
27505;SDS011;14939;43.596;1.320;2022-11-15T05:01:58;16.98;;;11.57;;
27505;SDS011;14939;43.596;1.320;2022-11-15T05:04:24;18.50;;;11.77;;
27505;SDS011;14939;43.596;1.320;2022-11-15T05:06:50;23.98;;;12.32;;
27505;SDS011;14939;43.596;1.320;2022-11-15T05:09:16;22.70;;;12.60;;
27505;SDS011;14939;43.596;1.320;2022-11-15T05:11:43;22.50;;;12.52;;
27505;SDS011;14939;43.596;1.320;2022-11-15T05:14:09;23.52;;;12.85;;
27505;SDS011;14939;43.596;1.320;2022-11-15T05:16:35;24.95;;;13.65;;
27505;SDS011;14939;43.596;1.320;2022-11-15T05:19:02;22.75;;;13.95;;
27505;SDS011;14939;43.596;1.320;2022-11-15T05:21:27;23.88;;;13.40;;
27505;SDS011;14939;43.596;1.320;2022-11-15T05:23:53;21.00;;;12.70;;
27505;SDS011;14939;43.596;1.320;2022-11-15T05:26:19;25.42;;;13.27;;
27505;SDS011;14939;43.596;1.320;2022-11-15T05:28:44;21.00;;;13.38;;
27505;SDS011;14939;43.596;1.320;2022-11-15T05:31:11;28.80;;;13.18;;
27505;SDS011;14939;43.596;1.320;2022-11-15T05:33:39;26.65;;;14.25;;
27505;SDS011;14939;43.596;1.320;2022-11-15T05:38:45;25.88;;;13.00;;
27505;SDS011;14939;43.596;1.320;2022-11-15T05:41:13;22.92;;;14.07;;
27505;SDS011;14939;43.596;1.320;2022-11-15T05:43:40;26.20;;;14.68;;
27505;SDS011;14939;43.596;1.320;2022-11-15T05:46:08;26.02;;;14.40;;
27505;SDS011;14939;43.596;1.320;2022-11-15T05:48:34;26.55;;;14.35;;
27505;SDS011;14939;43.596;1.320;2022-11-15T05:51:02;26.42;;;14.35;;
27505;SDS011;14939;43.596;1.320;2022-11-15T05:53:29;26.63;;;14.48;;
27505;SDS011;14939;43.596;1.320;2022-11-15T05:55:56;25.90;;;13.95;;
27505;SDS011;14939;43.596;1.320;2022-11-15T05:58:22;24.52;;;13.80;;
27505;SDS011;14939;43.596;1.320;2022-11-15T06:00:47;25.75;;;14.95;;
27505;SDS011;14939;43.596;1.320;2022-11-15T06:03:13;26.33;;;14.27;;
27505;SDS011;14939;43.596;1.320;2022-11-15T06:05:39;24.38;;;14.30;;
27505;SDS011;14939;43.596;1.320;2022-11-15T06:08:05;25.83;;;14.27;;
27505;SDS011;14939;43.596;1.320;2022-11-15T06:10:31;27.20;;;14.27;;
27505;SDS011;14939;43.596;1.320;2022-11-15T06:15:24;24.58;;;14.20;;
27505;SDS011;14939;43.596;1.320;2022-11-15T06:17:49;25.65;;;14.65;;
27505;SDS011;14939;43.596;1.320;2022-11-15T06:20:15;23.40;;;14.00;;
27505;SDS011;14939;43.596;1.320;2022-11-15T06:22:41;25.23;;;14.20;;
27505;SDS011;14939;43.596;1.320;2022-11-15T06:25:07;23.40;;;14.65;;
27505;SDS011;14939;43.596;1.320;2022-11-15T06:27:32;23.85;;;14.45;;
27505;SDS011;14939;43.596;1.320;2022-11-15T06:29:58;27.45;;;15.27;;
27505;SDS011;14939;43.596;1.320;2022-11-15T06:32:24;27.08;;;14.35;;
27505;SDS011;14939;43.596;1.320;2022-11-15T06:34:49;25.17;;;14.38;;
27505;SDS011;14939;43.596;1.320;2022-11-15T06:37:15;29.10;;;14.95;;
27505;SDS011;14939;43.596;1.320;2022-11-15T06:39:40;28.27;;;15.10;;
27505;SDS011;14939;43.596;1.320;2022-11-15T06:42:07;24.65;;;14.05;;
27505;SDS011;14939;43.596;1.320;2022-11-15T06:44:33;25.88;;;14.35;;
27505;SDS011;14939;43.596;1.320;2022-11-15T06:46:59;29.70;;;14.98;;
27505;SDS011;14939;43.596;1.320;2022-11-15T06:49:25;28.70;;;15.10;;
27505;SDS011;14939;43.596;1.320;2022-11-15T06:51:50;30.98;;;15.85;;
27505;SDS011;14939;43.596;1.320;2022-11-15T06:54:16;28.05;;;16.05;;
27505;SDS011;14939;43.596;1.320;2022-11-15T06:56:42;30.55;;;16.15;;
27505;SDS011;14939;43.596;1.320;2022-11-15T06:59:07;24.67;;;15.40;;
27505;SDS011;14939;43.596;1.320;2022-11-15T07:01:33;26.95;;;15.10;;
27505;SDS011;14939;43.596;1.320;2022-11-15T07:03:59;32.03;;;15.52;;
27505;SDS011;14939;43.596;1.320;2022-11-15T07:06:24;26.08;;;15.00;;
27505;SDS011;14939;43.596;1.320;2022-11-15T07:08:50;29.23;;;14.77;;
27505;SDS011;14939;43.596;1.320;2022-11-15T07:11:15;27.58;;;14.35;;
27505;SDS011;14939;43.596;1.320;2022-11-15T07:13:41;23.17;;;14.27;;
27505;SDS011;14939;43.596;1.320;2022-11-15T07:16:08;26.63;;;14.43;;
27505;SDS011;14939;43.596;1.320;2022-11-15T07:18:35;26.17;;;13.77;;
27505;SDS011;14939;43.596;1.320;2022-11-15T07:21:05;22.23;;;12.95;;
27505;SDS011;14939;43.596;1.320;2022-11-15T07:23:35;23.48;;;13.55;;
27505;SDS011;14939;43.596;1.320;2022-11-15T07:26:03;25.20;;;12.98;;
27505;SDS011;14939;43.596;1.320;2022-11-15T07:28:29;23.67;;;13.05;;
27505;SDS011;14939;43.596;1.320;2022-11-15T07:30:54;24.30;;;13.43;;
27505;SDS011;14939;43.596;1.320;2022-11-15T07:33:20;24.33;;;13.70;;
27505;SDS011;14939;43.596;1.320;2022-11-15T07:35:46;23.73;;;13.32;;
27505;SDS011;14939;43.596;1.320;2022-11-15T07:38:15;23.20;;;12.80;;
27505;SDS011;14939;43.596;1.320;2022-11-15T07:40:44;22.23;;;12.90;;
27505;SDS011;14939;43.596;1.320;2022-11-15T07:43:10;18.92;;;12.32;;
27505;SDS011;14939;43.596;1.320;2022-11-15T07:45:39;25.85;;;12.63;;
27505;SDS011;14939;43.596;1.320;2022-11-15T07:48:06;30.20;;;12.68;;
27505;SDS011;14939;43.596;1.320;2022-11-15T07:50:32;24.98;;;12.02;;
27505;SDS011;14939;43.596;1.320;2022-11-15T07:52:58;19.58;;;11.38;;
27505;SDS011;14939;43.596;1.320;2022-11-15T07:55:25;19.08;;;11.52;;
27505;SDS011;14939;43.596;1.320;2022-11-15T07:57:53;18.10;;;11.50;;
27505;SDS011;14939;43.596;1.320;2022-11-15T08:00:24;17.97;;;11.17;;
27505;SDS011;14939;43.596;1.320;2022-11-15T08:02:50;17.63;;;10.93;;
27505;SDS011;14939;43.596;1.320;2022-11-15T08:05:16;19.38;;;10.63;;
27505;SDS011;14939;43.596;1.320;2022-11-15T08:07:41;17.40;;;10.00;;
27505;SDS011;14939;43.596;1.320;2022-11-15T08:10:07;17.05;;;10.10;;
27505;SDS011;14939;43.596;1.320;2022-11-15T08:12:33;17.55;;;9.13;;
27505;SDS011;14939;43.596;1.320;2022-11-15T08:14:59;16.13;;;10.30;;
27505;SDS011;14939;43.596;1.320;2022-11-15T08:17:25;20.80;;;10.10;;
27505;SDS011;14939;43.596;1.320;2022-11-15T08:19:51;16.77;;;9.73;;
27505;SDS011;14939;43.596;1.320;2022-11-15T08:22:17;16.80;;;9.85;;
27505;SDS011;14939;43.596;1.320;2022-11-15T08:24:43;17.75;;;10.30;;
27505;SDS011;14939;43.596;1.320;2022-11-15T08:27:09;15.70;;;9.68;;
27505;SDS011;14939;43.596;1.320;2022-11-15T08:29:43;31.30;;;10.60;;
27505;SDS011;14939;43.596;1.320;2022-11-15T08:32:10;20.63;;;10.70;;
27505;SDS011;14939;43.596;1.320;2022-11-15T08:34:36;26.15;;;10.80;;
27505;SDS011;14939;43.596;1.320;2022-11-15T08:37:03;18.73;;;10.27;;
27505;SDS011;14939;43.596;1.320;2022-11-15T08:39:29;17.48;;;11.40;;
27505;SDS011;14939;43.596;1.320;2022-11-15T08:41:56;15.73;;;11.30;;
27505;SDS011;14939;43.596;1.320;2022-11-15T08:44:21;30.77;;;11.25;;
27505;SDS011;14939;43.596;1.320;2022-11-15T08:46:47;17.27;;;10.75;;
27505;SDS011;14939;43.596;1.320;2022-11-15T08:49:13;16.67;;;10.13;;
27505;SDS011;14939;43.596;1.320;2022-11-15T08:51:38;21.90;;;9.88;;
27505;SDS011;14939;43.596;1.320;2022-11-15T08:54:04;19.10;;;10.48;;
27505;SDS011;14939;43.596;1.320;2022-11-15T08:56:30;15.95;;;10.43;;
27505;SDS011;14939;43.596;1.320;2022-11-15T08:58:55;15.63;;;10.63;;
27505;SDS011;14939;43.596;1.320;2022-11-15T09:01:21;21.15;;;11.07;;
27505;SDS011;14939;43.596;1.320;2022-11-15T09:03:47;17.35;;;10.13;;
27505;SDS011;14939;43.596;1.320;2022-11-15T09:06:13;23.83;;;11.77;;
27505;SDS011;14939;43.596;1.320;2022-11-15T09:08:39;20.42;;;11.00;;
27505;SDS011;14939;43.596;1.320;2022-11-15T09:11:06;16.60;;;10.40;;
27505;SDS011;14939;43.596;1.320;2022-11-15T09:13:33;17.42;;;10.73;;
27505;SDS011;14939;43.596;1.320;2022-11-15T09:15:59;19.67;;;10.93;;
27505;SDS011;14939;43.596;1.320;2022-11-15T09:18:26;17.17;;;10.98;;
27505;SDS011;14939;43.596;1.320;2022-11-15T09:20:55;16.63;;;10.45;;
27505;SDS011;14939;43.596;1.320;2022-11-15T09:23:22;17.33;;;10.15;;
27505;SDS011;14939;43.596;1.320;2022-11-15T09:25:49;19.17;;;9.98;;
27505;SDS011;14939;43.596;1.320;2022-11-15T09:28:14;13.80;;;9.00;;
27505;SDS011;14939;43.596;1.320;2022-11-15T09:30:40;14.05;;;8.77;;
27505;SDS011;14939;43.596;1.320;2022-11-15T09:33:09;18.98;;;8.65;;
27505;SDS011;14939;43.596;1.320;2022-11-15T09:35:35;13.88;;;8.10;;
27505;SDS011;14939;43.596;1.320;2022-11-15T09:38:01;15.68;;;8.50;;
27505;SDS011;14939;43.596;1.320;2022-11-15T09:40:29;15.40;;;8.40;;
27505;SDS011;14939;43.596;1.320;2022-11-15T09:45:40;13.30;;;7.50;;
27505;SDS011;14939;43.596;1.320;2022-11-15T09:51:39;14.10;;;8.25;;
27505;SDS011;14939;43.596;1.320;2022-11-15T09:57:47;16.20;;;8.25;;
27505;SDS011;14939;43.596;1.320;2022-11-15T10:03:23;12.13;;;7.60;;
27505;SDS011;14939;43.596;1.320;2022-11-15T10:05:19;11.98;;;7.40;;
27505;SDS011;14939;43.596;1.320;2022-11-15T10:13:28;13.20;;;6.75;;
27505;SDS011;14939;43.596;1.320;2022-11-15T10:16:00;14.88;;;7.53;;
27505;SDS011;14939;43.596;1.320;2022-11-15T10:19:00;16.23;;;7.05;;
27505;SDS011;14939;43.596;1.320;2022-11-15T10:21:52;12.82;;;6.82;;
27505;SDS011;14939;43.596;1.320;2022-11-15T10:24:25;8.48;;;6.18;;
27505;SDS011;14939;43.596;1.320;2022-11-15T10:26:56;10.65;;;6.60;;
27505;SDS011;14939;43.596;1.320;2022-11-15T10:29:22;8.60;;;5.90;;
27505;SDS011;14939;43.596;1.320;2022-11-15T10:31:49;12.60;;;6.22;;
27505;SDS011;14939;43.596;1.320;2022-11-15T10:34:19;11.63;;;5.90;;
27505;SDS011;14939;43.596;1.320;2022-11-15T10:36:53;11.23;;;6.47;;
27505;SDS011;14939;43.596;1.320;2022-11-15T10:39:21;8.13;;;5.50;;
27505;SDS011;14939;43.596;1.320;2022-11-15T10:41:47;12.45;;;6.32;;
27505;SDS011;14939;43.596;1.320;2022-11-15T10:46:48;10.05;;;5.63;;
27505;SDS011;14939;43.596;1.320;2022-11-15T10:49:34;13.70;;;5.93;;
27505;SDS011;14939;43.596;1.320;2022-11-15T10:52:01;10.07;;;5.53;;
27505;SDS011;14939;43.596;1.320;2022-11-15T10:54:41;14.82;;;6.05;;
27505;SDS011;14939;43.596;1.320;2022-11-15T10:57:17;9.45;;;6.25;;
27505;SDS011;14939;43.596;1.320;2022-11-15T11:02:47;13.70;;;6.07;;
27505;SDS011;14939;43.596;1.320;2022-11-15T11:05:28;15.60;;;6.18;;
27505;SDS011;14939;43.596;1.320;2022-11-15T11:08:03;9.85;;;6.22;;
27505;SDS011;14939;43.596;1.320;2022-11-15T11:10:29;12.00;;;5.97;;
27505;SDS011;14939;43.596;1.320;2022-11-15T11:12:55;13.90;;;6.30;;
27505;SDS011;14939;43.596;1.320;2022-11-15T11:15:20;12.38;;;6.13;;
27505;SDS011;14939;43.596;1.320;2022-11-15T11:18:15;10.60;;;6.30;;
27505;SDS011;14939;43.596;1.320;2022-11-15T11:20:51;28.63;;;6.60;;
27505;SDS011;14939;43.596;1.320;2022-11-15T11:48:45;12.57;;;5.88;;
27505;SDS011;14939;43.596;1.320;2022-11-15T11:54:14;10.63;;;6.65;;
27505;SDS011;14939;43.596;1.320;2022-11-15T11:56:46;110.20;;;10.27;;
27505;SDS011;14939;43.596;1.320;2022-11-15T12:01:45;14.00;;;7.40;;
27505;SDS011;14939;43.596;1.320;2022-11-15T12:04:16;21.80;;;7.18;;
27505;SDS011;14939;43.596;1.320;2022-11-15T12:07:07;11.45;;;7.25;;
27505;SDS011;14939;43.596;1.320;2022-11-15T12:10:25;12.13;;;6.57;;
27505;SDS011;14939;43.596;1.320;2022-11-15T12:15:41;12.80;;;6.80;;
27505;SDS011;14939;43.596;1.320;2022-11-15T12:18:14;12.10;;;7.03;;
27505;SDS011;14939;43.596;1.320;2022-11-15T12:20:42;26.15;;;7.63;;
27505;SDS011;14939;43.596;1.320;2022-11-15T12:23:25;16.90;;;7.22;;
27505;SDS011;14939;43.596;1.320;2022-11-15T12:25:59;12.63;;;6.40;;
27505;SDS011;14939;43.596;1.320;2022-11-15T12:34:01;13.02;;;6.95;;
27505;SDS011;14939;43.596;1.320;2022-11-15T12:36:46;64.72;;;9.13;;
27505;SDS011;14939;43.596;1.320;2022-11-15T12:39:13;14.30;;;7.22;;
27505;SDS011;14939;43.596;1.320;2022-11-15T12:41:44;9.13;;;6.22;;
27505;SDS011;14939;43.596;1.320;2022-11-15T12:49:47;10.68;;;6.57;;
27505;SDS011;14939;43.596;1.320;2022-11-15T12:52:13;13.68;;;6.63;;
27505;SDS011;14939;43.596;1.320;2022-11-15T13:02:41;11.82;;;6.88;;
27505;SDS011;14939;43.596;1.320;2022-11-15T13:20:30;13.98;;;7.28;;
27505;SDS011;14939;43.596;1.320;2022-11-15T13:33:20;27.25;;;8.20;;
27505;SDS011;14939;43.596;1.320;2022-11-15T13:35:58;16.13;;;6.85;;
27505;SDS011;14939;43.596;1.320;2022-11-15T13:38:31;11.10;;;6.32;;
27505;SDS011;14939;43.596;1.320;2022-11-15T13:41:11;16.05;;;6.85;;
27505;SDS011;14939;43.596;1.320;2022-11-15T13:43:45;9.50;;;6.20;;
27505;SDS011;14939;43.596;1.320;2022-11-15T13:48:42;12.07;;;6.85;;
27505;SDS011;14939;43.596;1.320;2022-11-15T13:51:33;17.80;;;7.07;;
27505;SDS011;14939;43.596;1.320;2022-11-15T13:54:00;15.18;;;6.88;;
27505;SDS011;14939;43.596;1.320;2022-11-15T13:57:44;12.30;;;7.78;;
27505;SDS011;14939;43.596;1.320;2022-11-15T13:59:51;12.13;;;7.18;;
27505;SDS011;14939;43.596;1.320;2022-11-15T14:02:26;13.32;;;7.22;;
27505;SDS011;14939;43.596;1.320;2022-11-15T14:05:00;15.25;;;7.30;;
27505;SDS011;14939;43.596;1.320;2022-11-15T14:07:28;14.10;;;7.60;;
27505;SDS011;14939;43.596;1.320;2022-11-15T14:09:54;15.10;;;6.53;;
27505;SDS011;14939;43.596;1.320;2022-11-15T14:12:26;12.88;;;6.95;;
27505;SDS011;14939;43.596;1.320;2022-11-15T14:15:00;14.95;;;7.97;;
27505;SDS011;14939;43.596;1.320;2022-11-15T14:17:42;13.10;;;8.57;;
27505;SDS011;14939;43.596;1.320;2022-11-15T14:20:19;15.60;;;8.90;;
27505;SDS011;14939;43.596;1.320;2022-11-15T14:23:25;13.60;;;7.90;;
27505;SDS011;14939;43.596;1.320;2022-11-15T14:25:53;14.88;;;7.75;;
27505;SDS011;14939;43.596;1.320;2022-11-15T14:30:48;10.93;;;6.68;;
27505;SDS011;14939;43.596;1.320;2022-11-15T14:38:30;12.18;;;8.15;;
27505;SDS011;14939;43.596;1.320;2022-11-15T14:40:55;12.63;;;7.45;;
27505;SDS011;14939;43.596;1.320;2022-11-15T14:43:21;13.32;;;7.82;;
27505;SDS011;14939;43.596;1.320;2022-11-15T14:45:47;13.80;;;7.90;;
27505;SDS011;14939;43.596;1.320;2022-11-15T14:48:13;17.05;;;7.95;;
27505;SDS011;14939;43.596;1.320;2022-11-15T14:50:39;14.23;;;7.97;;
27505;SDS011;14939;43.596;1.320;2022-11-15T14:53:04;12.95;;;8.40;;
27505;SDS011;14939;43.596;1.320;2022-11-15T14:55:32;16.73;;;8.23;;
27505;SDS011;14939;43.596;1.320;2022-11-15T14:58:04;14.15;;;8.85;;
27505;SDS011;14939;43.596;1.320;2022-11-15T15:00:32;18.35;;;9.07;;
27505;SDS011;14939;43.596;1.320;2022-11-15T15:02:59;15.98;;;8.60;;
27505;SDS011;14939;43.596;1.320;2022-11-15T15:05:47;14.45;;;9.07;;
27505;SDS011;14939;43.596;1.320;2022-11-15T15:08:11;14.73;;;9.38;;
27505;SDS011;14939;43.596;1.320;2022-11-15T15:10:38;15.68;;;9.73;;
27505;SDS011;14939;43.596;1.320;2022-11-15T15:13:18;13.25;;;9.07;;
27505;SDS011;14939;43.596;1.320;2022-11-15T15:15:48;18.38;;;9.32;;
27505;SDS011;14939;43.596;1.320;2022-11-15T15:18:15;29.15;;;9.68;;
27505;SDS011;14939;43.596;1.320;2022-11-15T15:20:43;15.77;;;9.75;;
27505;SDS011;14939;43.596;1.320;2022-11-15T15:23:20;14.02;;;9.13;;
27505;SDS011;14939;43.596;1.320;2022-11-15T15:25:48;14.23;;;9.02;;
27505;SDS011;14939;43.596;1.320;2022-11-15T15:28:14;17.52;;;9.13;;
27505;SDS011;14939;43.596;1.320;2022-11-15T15:30:39;20.88;;;9.15;;
27505;SDS011;14939;43.596;1.320;2022-11-15T15:33:05;19.67;;;9.10;;
27505;SDS011;14939;43.596;1.320;2022-11-15T15:35:32;12.90;;;8.40;;
27505;SDS011;14939;43.596;1.320;2022-11-15T15:37:59;16.33;;;9.23;;
27505;SDS011;14939;43.596;1.320;2022-11-15T15:40:25;15.07;;;9.10;;
27505;SDS011;14939;43.596;1.320;2022-11-15T15:42:53;17.10;;;9.52;;
27505;SDS011;14939;43.596;1.320;2022-11-15T15:45:19;19.52;;;9.90;;
27505;SDS011;14939;43.596;1.320;2022-11-15T15:47:45;15.80;;;9.18;;
27505;SDS011;14939;43.596;1.320;2022-11-15T15:50:19;14.55;;;9.48;;
27505;SDS011;14939;43.596;1.320;2022-11-15T15:52:46;20.33;;;10.02;;
27505;SDS011;14939;43.596;1.320;2022-11-15T15:55:12;21.27;;;9.60;;
27505;SDS011;14939;43.596;1.320;2022-11-15T15:57:37;17.30;;;9.75;;
27505;SDS011;14939;43.596;1.320;2022-11-15T16:00:03;15.63;;;9.63;;
27505;SDS011;14939;43.596;1.320;2022-11-15T16:02:29;18.05;;;10.27;;
27505;SDS011;14939;43.596;1.320;2022-11-15T16:04:55;17.85;;;9.40;;
27505;SDS011;14939;43.596;1.320;2022-11-15T16:07:21;18.60;;;9.07;;
27505;SDS011;14939;43.596;1.320;2022-11-15T16:09:50;15.07;;;9.15;;
27505;SDS011;14939;43.596;1.320;2022-11-15T16:12:29;18.08;;;10.15;;
27505;SDS011;14939;43.596;1.320;2022-11-15T16:14:56;16.83;;;9.73;;
27505;SDS011;14939;43.596;1.320;2022-11-15T16:17:23;14.80;;;9.65;;
27505;SDS011;14939;43.596;1.320;2022-11-15T16:20:00;15.95;;;9.10;;
27505;SDS011;14939;43.596;1.320;2022-11-15T16:22:26;18.40;;;9.45;;
27505;SDS011;14939;43.596;1.320;2022-11-15T16:24:51;18.95;;;9.60;;
27505;SDS011;14939;43.596;1.320;2022-11-15T16:27:18;15.77;;;9.93;;
27505;SDS011;14939;43.596;1.320;2022-11-15T16:29:45;15.43;;;9.32;;
27505;SDS011;14939;43.596;1.320;2022-11-15T16:32:11;17.48;;;9.93;;
27505;SDS011;14939;43.596;1.320;2022-11-15T16:34:37;16.25;;;9.88;;
27505;SDS011;14939;43.596;1.320;2022-11-15T16:37:03;16.85;;;10.23;;
27505;SDS011;14939;43.596;1.320;2022-11-15T16:39:29;16.15;;;11.07;;
27505;SDS011;14939;43.596;1.320;2022-11-15T16:41:56;19.90;;;11.65;;
27505;SDS011;14939;43.596;1.320;2022-11-15T16:44:23;15.88;;;11.00;;
27505;SDS011;14939;43.596;1.320;2022-11-15T16:46:49;17.83;;;11.13;;
27505;SDS011;14939;43.596;1.320;2022-11-15T16:49:16;13.13;;;9.77;;
27505;SDS011;14939;43.596;1.320;2022-11-15T16:51:47;17.02;;;11.65;;
27505;SDS011;14939;43.596;1.320;2022-11-15T16:54:14;17.52;;;11.18;;
27505;SDS011;14939;43.596;1.320;2022-11-15T16:56:40;20.15;;;11.90;;
27505;SDS011;14939;43.596;1.320;2022-11-15T16:59:08;17.40;;;11.18;;
27505;SDS011;14939;43.596;1.320;2022-11-15T17:01:38;19.60;;;10.70;;
27505;SDS011;14939;43.596;1.320;2022-11-15T17:04:11;16.67;;;10.95;;
27505;SDS011;14939;43.596;1.320;2022-11-15T17:06:41;16.15;;;10.85;;
27505;SDS011;14939;43.596;1.320;2022-11-15T17:09:12;15.18;;;10.93;;
27505;SDS011;14939;43.596;1.320;2022-11-15T17:11:42;17.88;;;11.35;;
27505;SDS011;14939;43.596;1.320;2022-11-15T17:14:09;14.73;;;10.45;;